地図

経路データ

SID SEASON NUMBER BASIN SUBBASIN NAME ISO_TIME NATURE LAT LON WMO_WIND WMO_PRES WMO_AGENCY TRACK_TYPE DIST2LAND LANDFALL IFLAG USA_AGENCY USA_ATCF_ID USA_LAT USA_LON USA_RECORD USA_STATUS USA_WIND USA_PRES USA_SSHS USA_R34_NE USA_R34_SE USA_R34_SW USA_R34_NW USA_R50_NE USA_R50_SE USA_R50_SW USA_R50_NW USA_R64_NE USA_R64_SE USA_R64_SW USA_R64_NW USA_POCI USA_ROCI USA_RMW USA_EYE TOKYO_LAT TOKYO_LON TOKYO_GRADE TOKYO_WIND TOKYO_PRES TOKYO_R50_DIR TOKYO_R50_LONG TOKYO_R50_SHORT TOKYO_R30_DIR TOKYO_R30_LONG TOKYO_R30_SHORT TOKYO_LAND CMA_LAT CMA_LON CMA_CAT CMA_WIND CMA_PRES HKO_LAT HKO_LON HKO_CAT HKO_WIND HKO_PRES NEWDELHI_LAT NEWDELHI_LON NEWDELHI_GRADE NEWDELHI_WIND NEWDELHI_PRES NEWDELHI_CI NEWDELHI_DP NEWDELHI_POCI REUNION_LAT REUNION_LON REUNION_TYPE REUNION_WIND REUNION_PRES REUNION_TNUM REUNION_CI REUNION_RMW REUNION_R34_NE REUNION_R34_SE REUNION_R34_SW REUNION_R34_NW REUNION_R50_NE REUNION_R50_SE REUNION_R50_SW REUNION_R50_NW REUNION_R64_NE REUNION_R64_SE REUNION_R64_SW REUNION_R64_NW BOM_LAT BOM_LON BOM_TYPE BOM_WIND BOM_PRES BOM_TNUM BOM_CI BOM_RMW BOM_R34_NE BOM_R34_SE BOM_R34_SW BOM_R34_NW BOM_R50_NE BOM_R50_SE BOM_R50_SW BOM_R50_NW BOM_R64_NE BOM_R64_SE BOM_R64_SW BOM_R64_NW BOM_ROCI BOM_POCI BOM_EYE BOM_POS_METHOD BOM_PRES_METHOD NADI_LAT NADI_LON NADI_CAT NADI_WIND NADI_PRES WELLINGTON_LAT WELLINGTON_LON WELLINGTON_WIND WELLINGTON_PRES DS824_LAT DS824_LON DS824_STAGE DS824_WIND DS824_PRES TD9636_LAT TD9636_LON TD9636_STAGE TD9636_WIND TD9636_PRES TD9635_LAT TD9635_LON TD9635_WIND TD9635_PRES TD9635_ROCI NEUMANN_LAT NEUMANN_LON NEUMANN_CLASS NEUMANN_WIND NEUMANN_PRES MLC_LAT MLC_LON MLC_CLASS MLC_WIND MLC_PRES USA_GUST BOM_GUST BOM_GUST_PER REUNION_GUST REUNION_GUST_PER USA_SEAHGT USA_SEARAD_NE USA_SEARAD_SE USA_SEARAD_SW USA_SEARAD_NW STORM_SPEED STORM_DIR
1959237N18086 1959 67 NI BB NOT_NAMED 1959-08-24 18:00:00 TS 18.4000 86.3000 main 164 158 O________O____ jtwc_io IO091959 18.4000 86.3000 -1 18.4000 86.3000 TC 2 297
1959237N18086 1959 67 NI BB NOT_NAMED 1959-08-24 21:00:00 TS 18.4500 86.2000 main 149 143 P________P____ IO091959 18.4500 86.2000 -1 18.4500 86.2000 TC 2 298
1959237N18086 1959 67 NI BB NOT_NAMED 1959-08-25 00:00:00 TS 18.5000 86.1000 main 143 128 O________O____ jtwc_io IO091959 18.5000 86.1000 -1 18.5000 86.1000 TC 25 2 299
1959237N18086 1959 67 NI BB NOT_NAMED 1959-08-25 03:00:00 TS 18.5555 86.0000 main 128 123 P________PO___ IO091959 18.5500 86.0000 -1 18.5500 86.0000 TC 25 18.6000 86.0000 1 2 300
1959237N18086 1959 67 NI BB NOT_NAMED 1959-08-25 06:00:00 TS 18.6113 85.8941 main 123 109 O________OP___ jtwc_io IO091959 18.6000 85.9000 -1 18.6000 85.9000 TC 25 18.6564 85.8706 1 2 299
1959237N18086 1959 67 NI BB NOT_NAMED 1959-08-25 09:00:00 TS 18.6664 85.7871 main 109 103 P________PP___ IO091959 18.6500 85.8000 -1 18.6500 85.8000 TC 25 18.7102 85.7529 1 2 298
1959237N18086 1959 67 NI BB NOT_NAMED 1959-08-25 12:00:00 TS 18.7196 85.6862 main 103 88 O________OP___ jtwc_io IO091959 18.7000 85.7000 -1 18.7000 85.7000 TC 25 18.7589 85.6587 1 2 297
1959237N18086 1959 67 NI BB NOT_NAMED 1959-08-25 15:00:00 TS 18.7617 85.5900 main 88 84 P________PO___ IO091959 18.7425 85.5850 -1 18.7425 85.5850 TC 25 18.8000 85.6000 1 2 301
1959237N18086 1959 67 NI BB NOT_NAMED 1959-08-25 18:00:00 TS 18.8117 85.5266 main 84 74 O________OP___ jtwc_io IO091959 18.8000 85.5000 -1 18.8000 85.5000 TC 25 18.8351 85.5798 1 1 333
1959237N18086 1959 67 NI BB NOT_NAMED 1959-08-25 21:00:00 TS 18.8840 85.5272 main 74 64 P________PP___ IO091959 18.8850 85.5074 -1 18.8850 85.5074 TC 25 18.8821 85.5667 1 2 354
1959237N18086 1959 67 NI BB NOT_NAMED 1959-08-26 00:00:00 TS 18.9877 85.5067 main 64 49 O________OP___ jtwc_io IO091959 19.0000 85.5000 -1 19.0000 85.5000 TC 25 18.9631 85.5202 1 3 332
1959237N18086 1959 67 NI BB NOT_NAMED 1959-08-26 03:00:00 TS 19.1133 85.4016 main 49 22 P________PO___ IO091959 19.1199 85.4023 -1 19.1199 85.4023 TC 25 19.1000 85.4000 1 4 316
1959237N18086 1959 67 NI BB NOT_NAMED 1959-08-26 06:00:00 TS 19.3032 85.1875 main 22 0 O________OP___ jtwc_io IO091959 19.3000 85.2000 -1 19.3000 85.2000 TC 25 19.3096 85.1624 1 7 313
1959237N18086 1959 67 NI BB NOT_NAMED 1959-08-26 09:00:00 TS 19.5768 84.8743 main 0 0 P________PP___ IO091959 19.5775 84.8876 -1 19.5775 84.8876 TC 25 19.5752 84.8477 1 9 312
1959237N18086 1959 67 NI BB NOT_NAMED 1959-08-26 12:00:00 TS 19.8928 84.4947 main 0 0 O________OP___ jtwc_io IO091959 19.9000 84.5000 -1 19.9000 84.5000 TC 25 19.8783 84.4841 1 10 310
1959237N18086 1959 67 NI BB NOT_NAMED 1959-08-26 15:00:00 TS 20.1950 84.0999 main 0 0 P________PO___ IO091959 20.1925 84.0999 -1 20.1925 84.0999 TC 25 20.2000 84.1000 1 10 310
1959237N18086 1959 67 NI BB NOT_NAMED 1959-08-26 18:00:00 TS 20.5100 83.7075 main 0 0 O________OP___ jtwc_io IO091959 20.5000 83.7000 -1 20.5000 83.7000 TC 25 20.5251 83.7189 1 10 312
1959237N18086 1959 67 NI BB NOT_NAMED 1959-08-26 21:00:00 TS 20.8445 83.3402 main 0 0 P________PP___ IO091959 20.8401 83.3378 -1 20.8401 83.3378 TC 25 20.8503 83.3435 1 10 315
1959237N18086 1959 67 NI BB NOT_NAMED 1959-08-27 00:00:00 TS 21.1877 82.9857 main 0 0 O________OP___ jtwc_io IO091959 21.2000 83.0000 -1 21.2000 83.0000 TC 25 21.1754 82.9713 1 10 314
1959237N18086 1959 67 NI BB NOT_NAMED 1959-08-27 03:00:00 NR 21.5000 82.6000 main 0 __________O___ IO091959 -1 TC 21.5000 82.6000 1 10 311

IBTrACS Databaseについて

本データベースは、米国NOAAが公開する1842年以降の世界の熱帯低気圧のベストトラックデータアーカイブInternational Best Track Archive for Climate Stewardship (IBTrACS)を、ウェブで閲覧しやすい形式に変換したものです。

最終更新日:2021-12-06